Главная страница
METAR-TAF:

METAR-TAF

Аэропорты :

Lancaster Airport

Ланкастер, Пенсильвания, США

широта: 40-07-13N, долгота: 076-17-40W, высота над уровнем моря: 123 м

Текущие метеонаблюдения

Эта сводка был подготовлена 1 час и 7 минут назад, в 22:53 UTC
Ветер 8 Узел от северо-западный
Температура 24°C
Влажность 50%
Давление 1017 hPa
Видимость: 16.1 км
ясное небо

METAR: KLNS 232253Z 32008KT 10SM CLR 24/13 A3002 RMK AO2 SLP165 T02440133 $

Время: 20:00 (00:00 UTC)

Прогноз

Эта сводка был подготовлена 11 минут назад, в 23:49 UTC
Прогноз действительный с 24-го 00 UTC до 24-го 24 UTC
Ветер 5 Узел от северо-западный
Видимость: 10 км
ясное небо
С 24-го 1330 UTC
Ветер 5 Узел от северный
Видимость: 10 км
ясное небо

TAF: KLNS 232349Z 2400/2424 31005KT P6SM SKC FM241330 35005KT P6SM SKC

Метеонаблюдения и прогнозы для более 4000 аэропортов (сводки METAR и TAF).

Имеющиеся станции представлены на карте желтыми и красными точками.

Чтобы увидеть название станции, наведите на нее мышь.

Затем щелкните, чтобы увидеть метеонаблюдения и метеопрогнозы.

Управление картой: чтобы увеличить масштаб, щелкните зеленые кнопки с черным крестиком; чтобы уменьшить масштаб, щелкните зеленую кнопку с тире; для просмотра соседних карт щелкайте зеленые стрелки.


METAR-TAF: